Latest Weather Observations for Williamtown

IDN60801

Issued at 8:12 pm EST Wednesday 12 August 2020 (issued every 10 minutes, with the page automatically refreshed every 10 minutes)

About weather observations | Map of weather stations | Latest weather observations for NSW | Other Formats
Station Details ID: 061078 Name: WILLIAMTOWN RAAF Lat: -32.79 Lon: 151.84 Height: 7.5 m
Data from the previous 72 hours. | See also: Recent months at Williamtown
Date/Time
EST
Temp
°C
App
Temp
°C
Dew
Point
°C
Rel
Hum
%
Delta-T
°C
Wind Press
QNH
hPa
Press
MSL
hPa
Rain since
9am
mm
Dir  Spd
km/h
Gust
km/h
Spd
kts
Gust
kts
12/08:07pm 15.4 10.0 12.3 82 1.7 SW 32 50 17 27 1014.4 1014.4 0.0
12/08:00pm 14.6 11.8 13.3 92 0.7 WSW 20 50 11 27 1013.9 1013.9 0.0
12/07:59pm 14.2 12.4 13.4 95 0.4 SW 15 44 8 24 1013.9 1013.9 0.0
12/07:30pm 13.4 14.2 12.5 94 0.5 CALM 0 0 0 0 1012.7 1012.7 0.0
12/07:00pm 13.7 14.5 12.4 92 0.7 CALM 0 0 0 0 1012.6 1012.6 0.0
12/06:30pm 14.1 14.9 12.5 90 0.9 CALM 0 0 0 0 1012.6 1012.6 0.0
12/06:00pm 15.2 15.1 13.2 88 1.1 SSE 6 11 3 6 1012.1 1012.1 0.0
12/05:30pm 15.3 16.0 13.3 88 1.1 S 2 6 1 3 1012.5 1012.5 0.0
12/05:00pm 15.7 15.4 13.4 86 1.3 SSW 7 9 4 5 1012.3 1012.3 0.0
12/04:30pm 17.3 18.2 13.0 76 2.4 CALM 0 2 0 1 1012.2 1012.2 0.0
12/04:00pm 17.3 17.0 13.2 77 2.3 E 7 11 4 6 1012.0 1012.0 0.0
12/03:30pm 16.9 17.0 12.8 77 2.3 ENE 4 7 2 4 1012.2 1012.2 0.0
12/03:00pm 16.5 16.5 12.5 77 2.2 ENE 4 9 2 5 1012.4 1012.4 0.0
12/02:30pm 16.3 15.8 12.5 78 2.1 N 7 9 4 5 1012.8 1012.8 0.0
12/02:00pm 16.2 15.7 12.6 79 2.0 NNW 7 11 4 6 1013.2 1013.2 0.0
12/01:30pm 15.4 14.2 11.6 78 2.0 NNW 9 13 5 7 1013.6 1013.6 0.0
12/01:00pm 15.6 14.3 11.4 76 2.3 NW 9 13 5 7 1014.0 1014.0 0.0
12/12:30pm 15.3 13.7 11.5 78 2.0 NW 11 15 6 8 1014.6 1014.6 0.0
12/12:00pm 14.9 13.6 11.1 78 2.0 NW 9 13 5 7 1015.1 1015.1 0.0
12/11:30am 14.6 13.2 10.8 78 2.0 NW 9 11 5 6 1015.8 1015.8 0.0
12/11:00am 14.7 12.7 10.3 75 2.3 NW 11 15 6 8 1016.4 1016.4 0.0
12/10:30am 14.7 13.1 10.1 74 2.4 NNW 9 13 5 7 1016.6 1016.6 0.0
12/10:00am 13.5 13.2 11.4 87 1.1 NW 4 9 2 5 1017.2 1017.2 0.0
12/09:30am 12.5 11.5 11.1 91 0.7 WNW 7 11 4 6 1017.4 1017.4 0.0
12/09:00am 11.6 10.5 10.8 95 0.4 NW 7 11 4 6 1017.6 1017.6 0.0
12/08:30am 10.8 9.8 10.3 97 0.3 WNW 6 9 3 5 1017.7 1017.7 0.0
12/08:00am 10.1 8.8 9.8 98 0.2 WNW 7 7 4 4 1017.7 1017.7 0.0
12/07:30am 9.5 9.3 9.0 97 0.2 CALM 0 0 0 0 1017.4 1017.4 0.0
12/07:00am 9.1 8.7 8.3 95 0.4 CALM 0 0 0 0 1017.2 1017.2 0.0
12/06:30am 10.0 8.1 9.2 95 0.4 N 9 11 5 6 1016.9 1016.9 0.0
12/06:00am 10.0 8.1 9.2 95 0.4 N 9 11 5 6 1016.9 1016.9 0.0
12/05:30am 10.3 8.5 9.5 95 0.4 NNE 9 13 5 7 1016.6 1016.6 0.0
12/05:00am 9.6 8.6 9.0 96 0.3 NNE 4 9 2 5 1016.8 1016.8 0.0
12/04:30am 10.3 8.6 9.7 96 0.3 NNE 9 11 5 6 1016.6 1016.6 0.0
12/04:00am 10.1 8.4 9.8 98 0.2 NNE 9 11 5 6 1016.8 1016.8 0.0
12/03:30am 10.1 8.0 9.8 98 0.2 N 11 13 6 7 1016.9 1016.9 0.0
12/03:00am 8.8 7.8 8.7 99 0.0 NNW 4 9 2 5 1017.1 1017.1 0.0
12/02:30am 8.7 6.7 8.7 100 0.0 ENE 9 11 5 6 1017.1 1017.1 0.0
12/02:00am 8.5 6.8 8.4 99 0.0 ENE 7 9 4 5 1017.7 1017.7 0.0
12/01:30am 7.9 7.4 7.8 99 0.0 CALM 0 0 0 0 1018.2 1018.2 0.0
12/01:10am 8.5 7.0 8.4 99 0.0 E 6 7 3 4 1018.5 1018.5 0.0
12/01:00am 8.4 8.0 8.3 99 0.0 CALM 0 0 0 0 1018.4 1018.4 0.0
12/12:30am 7.6 7.0 7.5 99 0.0 CALM 0 6 0 3 1018.8 1018.8 0.0
12/12:00am 8.1 6.9 8.0 99 0.0 NNW 4 9 2 5 1018.6 1018.6 0.0
 
Date/Time
EST
Temp
°C
App
Temp
°C
Dew
Point
°C
Rel
Hum
%
Delta-T
°C
Wind Press
QNH
hPa
Press
MSL
hPa
Rain since
9am
mm
Dir  Spd
km/h
Gust
km/h
Spd
kts
Gust
kts
11/11:30pm 7.6 5.6 7.3 98 0.1 NW 7 9 4 5 1018.5 1018.5 0.0
11/11:00pm 8.2 6.6 7.9 98 0.1 NNW 6 7 3 4 1018.2 1018.2 0.0
11/10:30pm 8.2 7.7 7.9 98 0.1 CALM 0 0 0 0 1018.3 1018.3 0.0
11/10:00pm 8.6 8.2 8.2 97 0.2 CALM 0 0 0 0 1018.8 1018.8 0.0
11/09:30pm 8.3 7.8 7.7 96 0.3 CALM 0 0 0 0 1019.1 1019.1 0.0
11/09:00pm 8.5 8.0 7.7 95 0.4 CALM 0 0 0 0 1019.4 1019.4 0.0
11/08:30pm 9.2 8.8 8.4 95 0.4 CALM 0 0 0 0 1019.4 1019.4 0.0
11/08:00pm 9.7 9.5 8.9 95 0.4 CALM 0 0 0 0 1019.2 1019.2 0.0
11/07:30pm 9.6 8.2 8.7 94 0.4 N 6 7 3 4 1019.3 1019.3 0.0
11/07:00pm 11.4 9.9 9.3 87 1.0 ENE 7 9 4 5 1018.9 1018.9 0.0
11/06:30pm 11.3 11.3 9.7 90 0.8 CALM 0 0 0 0 1018.6 1018.6 0.0
11/06:00pm 12.4 11.0 9.6 83 1.4 SE 7 9 4 5 1018.4 1018.4 0.0
11/05:30pm 14.6 13.6 10.4 76 2.2 SE 6 7 3 4 1018.3 1018.3 0.0
11/05:00pm 15.2 14.1 10.6 74 2.4 SSE 7 9 4 5 1018.2 1018.2 0.0
11/04:30pm 15.9 13.6 10.4 70 2.9 SSE 13 15 7 8 1018.3 1018.3 0.0
11/04:00pm 16.3 14.0 10.4 68 3.1 SSE 13 17 7 9 1018.3 1018.3 0.0
11/03:30pm 16.4 13.8 10.7 69 3.0 S 15 17 8 9 1018.3 1018.3 0.0
11/03:00pm 16.2 13.7 9.8 66 3.3 S 13 17 7 9 1018.4 1018.4 0.0
11/02:30pm 16.2 13.3 9.6 65 3.4 S 15 19 8 10 1018.4 1018.4 0.0
11/02:00pm 16.2 12.5 10.1 67 3.2 SSE 20 26 11 14 1018.2 1018.2 0.0
11/01:30pm 16.3 12.7 9.9 66 3.4 S 19 26 10 14 1018.4 1018.4 0.0
11/01:00pm 16.3 12.9 9.3 63 3.6 SSE 17 24 9 13 1019.0 1019.0 0.0
11/12:30pm 16.9 14.0 9.6 62 3.8 S 15 20 8 11 1019.5 1019.5 0.0
11/12:00pm 16.3 13.0 9.7 65 3.4 S 17 26 9 14 1019.9 1019.9 0.0
11/11:30am 16.4 12.9 8.9 61 3.9 S 17 26 9 14 1020.2 1020.2 0.0
11/11:00am 16.2 13.3 9.6 65 3.4 SSW 15 20 8 11 1020.7 1020.7 0.0
11/10:30am 15.7 13.2 9.8 68 3.1 SW 13 19 7 10 1020.9 1020.9 0.0
11/10:00am 14.8 12.0 10.0 73 2.5 WSW 15 22 8 12 1020.8 1020.8 0.0
11/09:30am 14.3 11.7 9.5 73 2.5 WSW 13 19 7 10 1020.9 1020.9 0.0
11/09:00am 13.6 11.2 10.0 79 1.9 WSW 13 15 7 8 1021.0 1021.0 18.4
11/08:30am 13.5 11.8 9.9 79 1.9 W 9 13 5 7 1020.9 1020.9 18.4
11/08:00am 12.1 10.1 10.2 88 1.0 WSW 11 15 6 8 1021.0 1021.0 18.4
11/07:30am 10.0 7.0 9.1 94 0.4 WNW 15 19 8 10 1021.0 1021.0 18.4
11/07:00am 9.2 7.1 8.3 94 0.4 NW 9 13 5 7 1020.9 1020.9 18.4
11/06:30am 10.0 7.0 9.1 94 0.4 WSW 15 19 8 10 1020.6 1020.6 18.4
11/06:00am 10.0 7.4 9.5 97 0.2 W 13 15 7 8 1020.3 1020.3 18.4
11/05:30am 10.1 8.0 9.8 98 0.2 W 11 13 6 7 1020.2 1020.2 18.4
11/05:00am 10.3 7.5 10.0 98 0.2 WNW 15 17 8 9 1020.0 1020.0 18.4
11/04:30am 10.4 8.3 9.9 97 0.3 W 11 15 6 8 1019.8 1019.8 18.4
11/04:00am 10.3 7.4 9.8 97 0.3 W 15 19 8 10 1019.7 1019.7 18.4
11/03:30am 10.4 7.2 9.9 97 0.3 W 17 22 9 12 1019.5 1019.5 18.4
11/03:00am 10.6 7.1 10.1 97 0.3 WSW 19 26 10 14 1019.5 1019.5 18.4
11/02:48am 10.7 7.2 10.2 97 0.3 WSW 19 26 10 14 1019.4 1019.4 18.4
11/02:35am 10.7 6.6 10.2 97 0.3 WSW 22 28 12 15 1019.3 1019.3 18.4
11/02:30am 10.7 6.6 10.1 96 0.3 WSW 22 30 12 16 1019.3 1019.3 18.2
11/02:00am 10.8 7.4 10.5 98 0.2 WSW 19 24 10 13 1019.3 1019.3 17.8
11/01:30am 10.8 7.2 10.5 98 0.2 WSW 20 26 11 14 1019.2 1019.2 17.8
11/01:20am 10.8 7.4 10.5 98 0.2 WSW 19 26 10 14 1019.3 1019.3 17.8
11/01:00am 10.8 8.1 10.5 98 0.2 WSW 15 20 8 11 1019.3 1019.3 17.8
11/12:42am 11.0 7.4 10.4 96 0.3 SW 20 28 11 15 1019.6 1019.6 17.6
11/12:36am 11.0 7.5 10.2 95 0.4 WSW 19 26 10 14 1019.5 1019.5 17.0
11/12:30am 11.0 7.5 10.2 95 0.4 W 19 26 10 14 1019.2 1019.2 16.8
11/12:00am 10.7 7.5 10.1 96 0.3 WSW 17 22 9 12 1019.2 1019.2 16.8
 
Date/Time
EST
Temp
°C
App
Temp
°C
Dew
Point
°C
Rel
Hum
%
Delta-T
°C
Wind Press
QNH
hPa
Press
MSL
hPa
Rain since
9am
mm
Dir  Spd
km/h
Gust
km/h
Spd
kts
Gust
kts
10/11:30pm 10.3 7.6 9.1 92 0.6 WSW 13 15 7 8 1018.8 1018.8 16.8
10/11:00pm 11.3 8.4 9.6 89 0.9 SW 15 19 8 10 1018.8 1018.8 16.8
10/10:30pm 11.8 8.2 9.7 87 1.1 SW 19 26 10 14 1019.2 1019.2 16.8
10/10:00pm 12.9 7.1 9.5 80 1.7 SSW 30 39 16 21 1019.2 1019.2 16.8
10/09:30pm 13.7 8.7 9.4 75 2.2 SSW 26 35 14 19 1019.1 1019.1 16.8
10/09:00pm 13.2 8.0 10.2 82 1.5 SSW 28 39 15 21 1019.0 1019.0 16.8
10/08:30pm 13.2 8.0 10.2 82 1.6 SSW 28 35 15 19 1018.9 1018.9 16.8
10/08:00pm 12.8 7.7 10.5 86 1.2 SSW 28 41 15 22 1019.1 1019.1 16.8
10/07:30pm 12.1 7.1 11.0 93 0.6 SSW 28 50 15 27 1018.9 1018.9 16.8
10/07:25pm 11.9 7.6 10.6 92 0.7 SSW 24 50 13 27 1018.9 1018.9 16.8
10/07:00pm 12.0 5.2 10.7 92 0.7 SSW 37 50 20 27 1018.7 1018.7 16.0
10/06:46pm 12.1 6.1 10.7 91 0.7 S 33 59 18 32 1018.6 1018.6 16.0
10/06:30pm 11.9 5.4 10.3 90 0.8 S 35 52 19 28 1018.4 1018.4 15.6
10/06:13pm 12.3 4.7 10.5 89 0.9 S 41 61 22 33 1018.2 1018.2 15.6
10/06:00pm 14.0 7.3 9.6 75 2.3 S 35 63 19 34 1017.8 1017.8 15.4
10/05:30pm 13.9 7.0 8.9 72 2.5 S 35 52 19 28 1017.5 1017.5 15.4
10/05:00pm 12.7 7.3 10.9 89 0.9 SSW 30 48 16 26 1017.2 1017.2 15.4
10/04:30pm 13.9 7.9 10.9 82 1.6 S 33 52 18 28 1016.7 1016.7 15.4
10/04:00pm 12.8 5.3 10.9 88 1.0 S 41 63 22 34 1016.4 1016.4 15.4
10/03:30pm 13.4 5.1 9.5 77 2.0 S 43 63 23 34 1015.8 1015.8 15.4
10/03:24pm 13.1 6.0 10.8 86 1.2 S 39 63 21 34 1016.0 1016.0 15.4
10/03:00pm 15.5 9.8 11.3 76 2.2 SSW 32 43 17 23 1015.5 1015.5 15.4
10/02:30pm 14.4 6.6 11.0 80 1.8 S 43 61 23 33 1015.4 1015.4 15.2
10/02:18pm 15.4 7.9 10.8 74 2.4 S 41 59 22 32 1015.1 1015.1 15.2
10/02:00pm 15.7 7.5 9.6 67 3.2 SSW 43 57 23 31 1015.1 1015.1 15.2
10/01:30pm 16.0 8.1 10.7 71 2.8 SSW 43 57 23 31 1014.7 1014.7 15.2
10/01:00pm 16.4 8.6 11.3 72 2.7 S 43 69 23 37 1014.4 1014.4 15.2
10/12:30pm 14.8 6.3 8.5 66 3.2 S 43 67 23 36 1013.9 1013.9 15.2
10/12:10pm 14.2 7.7 10.2 77 2.1 S 35 57 19 31 1013.8 1013.8 15.2
10/12:04pm 13.9 9.1 13.0 94 0.5 S 30 54 16 29 1013.9 1013.9 15.2
10/12:00pm 13.6 8.5 13.1 97 0.3 S 32 41 17 22 1014.0 1014.0 15.2
10/11:52am 13.0 6.4 12.5 97 0.3 SSE 39 59 21 32 1014.2 1014.2 15.2
10/11:30am 14.0 6.8 12.0 88 1.1 S 41 63 22 34 1013.8 1013.8 8.4
10/11:28am 14.2 7.4 12.1 87 1.1 S 39 59 21 32 1013.8 1013.8 8.4
10/11:12am 14.2 5.6 11.7 85 1.3 S 48 72 26 39 1013.9 1013.9 8.4
10/11:00am 15.4 7.3 10.8 74 2.4 S 44 63 24 34 1013.4 1013.4 8.0
10/10:35am 14.9 7.5 11.1 78 2.0 S 41 59 22 32 1013.1 1013.1 8.0
10/10:30am 14.8 7.8 11.4 80 1.8 S 39 54 21 29 1013.0 1013.0 8.0
10/10:28am 14.7 7.9 11.8 83 1.6 S 39 56 21 30 1013.0 1013.0 8.0
10/10:25am 14.4 7.1 11.7 84 1.4 S 41 59 22 32 1013.0 1013.0 8.0
10/10:23am 14.2 6.5 11.5 84 1.4 S 43 59 23 32 1013.0 1013.0 8.0
10/10:06am 13.2 6.5 12.4 95 0.4 SSE 39 78 21 42 1012.9 1012.9 7.8
10/10:00am 13.6 7.5 13.0 96 0.3 SSE 37 61 20 33 1013.0 1013.0 7.6
10/09:52am 13.6 6.3 12.8 95 0.4 SSE 43 61 23 33 1012.9 1012.9 7.4
10/09:46am 13.9 6.9 13.6 98 0.2 SSE 43 59 23 32 1012.8 1012.8 7.0
10/09:30am 13.2 6.4 13.0 99 0.1 SSE 41 70 22 38 1012.7 1012.7 6.4
10/09:26am 12.7 5.3 12.4 98 0.2 SSE 43 70 23 38 1012.7 1012.7 6.2
10/09:14am 13.4 7.3 13.1 98 0.2 SSE 37 57 20 31 1012.3 1012.3 2.0
10/09:10am 13.6 9.4 13.4 99 0.1 S 28 44 15 24 1012.3 1012.3 1.8
10/09:00am 13.2 10.4 13.2 100 0.0 S 20 30 11 16 1012.0 1012.0 8.4
10/08:58am 13.3 10.5 13.3 100 0.0 S 20 30 11 16 1012.0 1012.0 8.2
10/08:38am 12.1 9.9 12.1 100 0.0 SSW 15 28 8 15 1012.0 1012.0 4.0
10/08:37am 12.2 9.7 12.2 100 0.0 SSW 17 32 9 17 1012.0 1012.0 4.0
10/08:30am 12.2 9.7 12.2 100 0.0 SSW 17 33 9 18 1011.8 1011.8 3.2
10/08:26am 11.6 9.3 11.6 100 0.0 SW 15 22 8 12 1011.7 1011.7 2.8
10/08:09am 10.7 7.3 10.7 100 0.0 W 19 28 10 15 1011.4 1011.3 2.2
10/08:00am 10.3 6.6 10.1 99 0.1 W 20 28 11 15 1011.4 1011.3 1.2
10/07:30am 9.6 5.3 9.5 99 0.0 WNW 22 28 12 15 1011.0 1010.9 1.0
10/07:00am 8.9 5.0 8.6 98 0.1 WNW 19 24 10 13 1010.9 1010.8 0.2
10/06:30am 8.4 3.8 8.1 98 0.1 WNW 22 30 12 16 1010.5 1010.4 0.0
10/06:00am 8.2 3.9 7.8 97 0.2 WNW 20 28 11 15 1010.1 1010.0 0.0
10/05:30am 8.3 4.2 7.9 97 0.2 WNW 19 26 10 14 1009.9 1009.8 0.0
10/05:00am 8.2 4.9 7.9 98 0.1 WNW 15 19 8 10 1009.4 1009.3 0.0
10/04:49am 8.2 4.5 7.8 97 0.2 WNW 17 20 9 11 1009.2 1009.1 0.0
10/04:30am 8.2 4.5 7.9 98 0.1 WNW 17 20 9 11 1009.2 1009.1 0.0
10/04:28am 8.2 4.5 7.9 98 0.1 WNW 17 20 9 11 1009.2 1009.1 0.0
10/04:00am 8.0 3.7 7.7 98 0.1 NW 20 26 11 14 1008.7 1008.6 0.0
10/03:30am 8.1 3.8 7.8 98 0.1 WNW 20 28 11 15 1009.1 1009.0 0.0
10/03:00am 7.8 3.6 7.5 98 0.1 WNW 19 24 10 13 1009.1 1009.0 0.0
10/02:30am 7.5 4.1 7.5 100 0.0 W 15 19 8 10 1009.1 1009.0 0.0
10/02:00am 6.8 4.3 6.7 99 0.0 NW 9 11 5 6 1009.3 1009.2 0.0
10/01:30am 6.3 3.7 6.2 99 0.0 WNW 9 11 5 6 1009.4 1009.3 0.0
10/01:00am 6.8 4.3 6.5 98 0.1 W 9 13 5 7 1009.3 1009.2 0.0
10/12:30am 7.7 5.4 7.3 97 0.2 WNW 9 9 5 5 1009.2 1009.1 0.0
10/12:00am 8.0 5.7 7.4 96 0.3 NW 9 9 5 5 1009.2 1009.1 0.0
 
Date/Time
EST
Temp
°C
App
Temp
°C
Dew
Point
°C
Rel
Hum
%
Delta-T
°C
Wind Press
QNH
hPa
Press
MSL
hPa
Rain since
9am
mm
Dir  Spd
km/h
Gust
km/h
Spd
kts
Gust
kts
09/11:30pm 8.4 6.1 7.5 94 0.4 WNW 9 9 5 5 1009.1 1009.0 0.0
09/11:00pm 8.6 5.9 7.4 92 0.6 NW 11 13 6 7 1009.0 1008.9 0.0
09/10:49pm 8.8 6.1 7.4 91 0.7 WNW 11 15 6 8 1009.1 1009.0 0.0
09/10:31pm 9.3 5.3 6.7 84 1.2 NW 17 24 9 13 1008.8 1008.7 0.0
09/10:30pm 9.3 5.3 6.6 83 1.3 NW 17 24 9 13 1008.8 1008.7 0.0
09/10:00pm 9.8 6.1 6.2 78 1.7 NNW 15 19 8 10 1008.3 1008.3 0.0
09/09:30pm 10.0 3.8 6.2 77 1.8 NW 28 37 15 20 1007.2 1007.2 0.0
09/09:10pm 10.0 2.8 5.8 75 1.9 NW 33 52 18 28 1006.7 1006.7 0.0
09/09:00pm 10.2 3.0 5.8 74 2.0 NW 33 48 18 26 1006.5 1006.5 0.0
09/08:30pm 10.8 4.2 6.0 72 2.2 WNW 30 43 16 23 1006.8 1006.8 0.0

Other formats

Comma delimited format used in spreadsheet applications
http://www.bom.gov.au/fwo/IDN60801/IDN60801.94776.axf

JavaScript Object Notation format (JSON) in row-major order
http://www.bom.gov.au/fwo/IDN60801/IDN60801.94776.json

Data quality

Most of these data are generated automatically and are frequently updated. Quality checks on data are not normally performed. It is possible for incorrect values to appear. Refer to information at About Latest Weather Observations and please check the disclaimer before using these data.